createdAt,value
2022-08-25T00:01:34.400Z,101863.00
2022-08-25T00:04:03.206Z,101860.28
2022-08-25T00:06:30.481Z,101858.59
2022-08-25T00:08:59.659Z,101841.06
2022-08-25T00:11:28.942Z,101857.56
2022-08-25T00:14:00.461Z,101855.03
2022-08-25T00:16:28.775Z,101851.66
2022-08-25T00:18:58.871Z,101852.06
2022-08-25T00:21:25.977Z,101860.19
2022-08-25T00:23:52.827Z,101850.63
2022-08-25T00:26:20.382Z,101850.19
2022-08-25T00:28:47.828Z,101859.38
2022-08-25T00:31:20.232Z,101852.06
2022-08-25T00:33:48.755Z,101842.56
2022-08-25T00:36:16.771Z,101851.41
2022-08-25T00:38:45.727Z,101852.56
2022-08-25T00:41:15.753Z,101850.56
2022-08-25T00:43:42.392Z,101852.56
2022-08-25T00:46:10.111Z,101863.81
2022-08-25T00:48:38.883Z,101865.00
2022-08-25T00:51:09.690Z,101853.31
2022-08-25T00:53:36.414Z,101856.59
2022-08-25T00:56:03.728Z,101856.78
2022-08-25T00:58:34.286Z,101859.88
2022-08-25T01:01:01.538Z,101848.72
2022-08-25T01:03:35.793Z,101871.28
2022-08-25T01:06:04.349Z,101868.47
2022-08-25T01:08:32.647Z,101862.56
2022-08-25T01:11:02.954Z,101862.94
2022-08-25T01:13:35.226Z,101860.56
2022-08-25T01:16:02.510Z,101864.50
2022-08-25T01:18:42.143Z,101854.56
2022-08-25T01:21:08.620Z,101857.94
2022-08-25T01:23:35.102Z,101860.19
2022-08-25T01:26:09.581Z,101858.00
2022-08-25T01:28:37.849Z,101869.03
2022-08-25T01:31:05.295Z,101849.13
2022-08-25T01:33:50.707Z,101859.13
2022-08-25T01:36:21.399Z,101852.72
2022-08-25T01:38:47.849Z,101852.63
2022-08-25T01:41:21.399Z,101858.53
2022-08-25T01:43:48.121Z,101864.50
2022-08-25T01:46:14.787Z,101861.28
2022-08-25T01:48:41.264Z,101857.22
2022-08-25T01:51:07.714Z,101863.03
2022-08-25T01:53:34.451Z,101868.31
2022-08-25T01:56:10.127Z,101871.03
2022-08-25T01:58:39.776Z,101875.78
2022-08-25T02:01:09.984Z,101869.88
2022-08-25T02:03:41.193Z,101848.28
2022-08-25T02:06:10.877Z,101880.59
2022-08-25T02:08:38.228Z,101873.84
2022-08-25T02:11:04.906Z,101876.06
2022-08-25T02:13:32.475Z,101877.25
2022-08-25T02:16:01.135Z,101868.00
2022-08-25T02:18:28.031Z,101878.66
2022-08-25T02:20:54.527Z,101874.28
2022-08-25T02:23:21.117Z,101875.63
2022-08-25T02:25:47.703Z,101870.38
2022-08-25T02:28:14.586Z,101869.03
2022-08-25T02:30:43.214Z,101872.41
2022-08-25T02:33:10.170Z,101870.72
2022-08-25T02:35:36.771Z,101861.94
2022-08-25T02:38:04.224Z,101869.41
2022-08-25T02:40:30.921Z,101862.31
2022-08-25T02:42:57.474Z,101866.38
2022-08-25T02:45:23.976Z,101867.22
2022-08-25T02:47:50.442Z,101859.28
2022-08-25T02:50:16.940Z,101849.31
2022-08-25T02:52:43.451Z,101859.63
2022-08-25T02:55:14.053Z,101855.41
2022-08-25T02:57:42.064Z,101855.78
2022-08-25T03:00:09.997Z,101866.63
2022-08-25T03:02:41.282Z,101863.41
2022-08-25T03:05:09.291Z,101866.97
2022-08-25T03:07:38.375Z,101856.66
2022-08-25T03:10:15.205Z,101857.50
2022-08-25T03:12:41.761Z,101852.25
2022-08-25T03:15:13.511Z,101861.91
2022-08-25T03:17:40.303Z,101847.72
2022-08-25T03:20:08.010Z,101855.00
2022-08-25T03:22:34.929Z,101861.44
2022-08-25T03:25:24.002Z,101865.16
2022-08-25T03:27:51.882Z,101853.50
2022-08-25T03:30:18.810Z,101861.94
2022-08-25T03:32:45.702Z,101854.31
2022-08-25T03:35:12.663Z,101855.16
2022-08-25T03:37:39.562Z,101845.53
2022-08-25T03:40:09.367Z,101845.06
2022-08-25T03:42:45.942Z,101837.09
2022-08-25T03:45:16.210Z,101838.97
2022-08-25T03:47:42.920Z,101841.47
2022-08-25T03:50:10.898Z,101834.91
2022-08-25T03:52:41.814Z,101836.94
2022-08-25T03:55:11.895Z,101839.81
2022-08-25T03:57:38.516Z,101840.00
2022-08-25T04:00:08.115Z,101844.75
2022-08-25T04:02:34.677Z,101845.94
2022-08-25T04:05:01.625Z,101837.16
2022-08-25T04:07:28.978Z,101852.56
2022-08-25T04:09:56.211Z,101843.41
2022-08-25T04:12:23.171Z,101835.47
2022-08-25T04:14:50.199Z,101834.63
2022-08-25T04:17:17.610Z,101824.84
2022-08-25T04:19:44.276Z,101837.34
2022-08-25T04:22:11.159Z,101842.91
2022-08-25T04:24:39.794Z,101848.16
2022-08-25T04:27:06.204Z,101820.13
2022-08-25T04:29:34.190Z,101843.09
2022-08-25T04:32:01.099Z,101843.75
2022-08-25T04:34:30.146Z,101845.97
2022-08-25T04:36:59.023Z,101863.38
2022-08-25T04:39:25.486Z,101858.81
2022-08-25T04:41:51.968Z,101856.44
2022-08-25T04:44:18.996Z,101867.78
2022-08-25T04:46:45.522Z,101862.19
2022-08-25T04:49:12.372Z,101865.06
2022-08-25T04:51:41.676Z,101870.97
2022-08-25T04:54:11.781Z,101840.88
2022-08-25T04:56:41.256Z,101863.34
2022-08-25T04:59:13.247Z,101859.63
2022-08-25T05:01:42.687Z,101864.00
2022-08-25T05:04:25.674Z,101867.06
2022-08-25T05:06:55.263Z,101830.91
2022-08-25T05:09:21.766Z,101858.59
2022-08-25T05:11:48.720Z,101849.25
2022-08-25T05:14:18.159Z,101853.66
2022-08-25T05:16:45.193Z,101834.22
2022-08-25T05:19:11.800Z,101837.06
2022-08-25T05:21:38.327Z,101842.66
2022-08-25T05:24:05.125Z,101825.41
2022-08-25T05:26:33.200Z,101828.41
2022-08-25T05:29:01.626Z,101834.31
2022-08-25T05:31:28.963Z,101832.09
2022-08-25T05:33:56.066Z,101828.03
2022-08-25T05:36:23.775Z,101816.34
2022-08-25T05:38:50.434Z,101801.47
2022-08-25T05:41:19.606Z,101832.69
2022-08-25T05:43:48.859Z,101831.97
2022-08-25T05:46:18.789Z,101841.75
2022-08-25T05:48:46.105Z,101836.06
2022-08-25T05:51:14.884Z,101843.16
2022-08-25T05:53:43.701Z,101836.97
2022-08-25T05:56:10.874Z,101835.06
2022-08-25T05:58:39.025Z,101838.75
2022-08-25T06:01:24.124Z,101840.75
2022-08-25T06:03:54.317Z,101837.13
2022-08-25T06:06:22.939Z,101824.22
2022-08-25T06:08:49.416Z,101823.13
2022-08-25T06:11:16.457Z,101841.19
2022-08-25T06:13:43.169Z,101838.97
2022-08-25T06:16:09.759Z,101838.22
2022-08-25T06:18:36.316Z,101838.69
2022-08-25T06:21:11.246Z,101825.91
2022-08-25T06:23:38.297Z,101824.47
2022-08-25T06:26:05.215Z,101830.03
2022-08-25T06:28:31.664Z,101831.97
2022-08-25T06:31:02.153Z,101825.63
2022-08-25T06:33:28.940Z,101822.56
2022-08-25T06:35:57.142Z,101831.91
2022-08-25T06:38:24.270Z,101841.09
2022-08-25T06:40:55.072Z,101832.63
2022-08-25T06:43:21.903Z,101828.59
2022-08-25T06:45:48.960Z,101834.38
2022-08-25T06:48:15.742Z,101833.41
2022-08-25T06:50:43.260Z,101838.84
2022-08-25T06:53:09.786Z,101838.53
2022-08-25T06:55:36.814Z,101833.81
2022-08-25T06:58:04.952Z,101835.19
2022-08-25T07:00:32.838Z,101838.22
2022-08-25T07:03:01.178Z,101843.97
2022-08-25T07:05:40.934Z,101843.84
2022-08-25T07:08:11.750Z,101856.50
2022-08-25T07:10:38.385Z,101863.72
2022-08-25T07:13:04.937Z,101854.56
2022-08-25T07:15:31.406Z,101842.19
2022-08-25T07:17:57.916Z,101867.47
2022-08-25T07:22:52.962Z,101862.53
2022-08-25T07:25:19.406Z,101866.59
2022-08-25T07:27:46.041Z,101862.59
2022-08-25T07:30:12.589Z,101858.31
2022-08-25T07:32:42.074Z,101848.09
2022-08-25T07:35:16.013Z,101844.38
2022-08-25T07:37:50.579Z,101855.50
2022-08-25T07:40:23.647Z,101840.00
2022-08-25T07:42:52.338Z,101848.44
2022-08-25T07:45:20.655Z,101851.59
2022-08-25T07:47:47.623Z,101852.88
2022-08-25T07:50:14.651Z,101850.84
2022-08-25T07:52:41.616Z,101859.44
2022-08-25T07:55:11.164Z,101838.03
2022-08-25T07:57:40.047Z,101857.59
2022-08-25T08:00:08.034Z,101855.06
2022-08-25T08:02:38.601Z,101857.19
2022-08-25T08:05:09.558Z,101846.44
2022-08-25T08:07:42.183Z,101849.13
2022-08-25T08:10:42.186Z,101844.34
2022-08-25T08:13:00.502Z,101855.47
2022-08-25T08:15:29.940Z,101849.16
2022-08-25T08:17:57.093Z,101854.81
2022-08-25T08:20:24.535Z,101845.34
2022-08-25T08:22:50.996Z,101849.78
2022-08-25T08:25:18.746Z,101844.72
2022-08-25T08:27:48.839Z,101851.03
2022-08-25T08:30:15.504Z,101856.22
2022-08-25T08:33:08.784Z,101853.50
2022-08-25T08:35:28.575Z,101856.00
2022-08-25T08:37:55.025Z,101854.28
2022-08-25T08:40:22.000Z,101860.19
2022-08-25T08:43:02.348Z,101863.31
2022-08-25T08:45:56.795Z,101864.28
2022-08-25T08:49:00.335Z,101858.81
2022-08-25T08:51:35.882Z,101849.13
2022-08-25T08:54:20.664Z,101840.66
2022-08-25T08:57:03.836Z,101838.16
2022-08-25T08:59:41.741Z,101845.66
2022-08-25T09:02:16.518Z,101836.63
2022-08-25T09:05:07.233Z,101843.13
2022-08-25T09:07:44.904Z,101838.44
2022-08-25T09:10:16.239Z,101842.22
2022-08-25T09:13:26.132Z,101835.88
2022-08-25T09:16:33.751Z,101841.53
2022-08-25T09:19:31.334Z,101834.75
2022-08-25T09:22:01.368Z,101835.19
2022-08-25T09:24:51.482Z,101842.53
2022-08-25T09:27:24.567Z,101844.97
2022-08-25T09:30:05.594Z,101841.13
2022-08-25T09:32:40.279Z,101836.66
2022-08-25T09:35:09.988Z,101836.16
2022-08-25T09:37:36.411Z,101799.38
2022-08-25T09:40:03.836Z,101829.94
2022-08-25T09:42:49.893Z,101846.97
2022-08-25T09:45:17.132Z,101836.22
2022-08-25T09:47:45.433Z,101822.13
2022-08-25T09:50:20.029Z,101811.97
2022-08-25T09:52:46.736Z,101822.00
2022-08-25T09:55:28.188Z,101809.13
2022-08-25T09:57:57.444Z,101819.03
2022-08-25T10:00:33.848Z,101809.47
2022-08-25T10:03:07.982Z,101805.56
2022-08-25T10:05:41.526Z,101784.22
2022-08-25T10:08:36.416Z,101775.66
2022-08-25T10:11:08.937Z,101795.47
2022-08-25T10:13:42.007Z,101785.56
2022-08-25T10:16:36.031Z,101780.41
2022-08-25T10:19:23.574Z,101778.25
2022-08-25T10:22:06.306Z,101780.09
2022-08-25T10:24:35.043Z,101770.88
2022-08-25T10:27:06.390Z,101769.75
2022-08-25T10:30:10.921Z,101774.53
2022-08-25T10:32:57.614Z,101766.44
2022-08-25T10:35:29.145Z,101771.31
2022-08-25T10:38:07.492Z,101754.16
2022-08-25T10:40:43.648Z,101673.72
2022-08-25T10:43:30.109Z,101754.22
2022-08-25T10:46:36.576Z,101701.81
2022-08-25T10:49:19.359Z,101739.69
2022-08-25T10:51:46.236Z,101730.06
2022-08-25T10:54:27.718Z,101728.50
2022-08-25T10:57:36.213Z,101733.31
2022-08-25T11:00:13.557Z,101713.69
2022-08-25T11:02:55.491Z,101719.00
2022-08-25T11:05:36.921Z,101667.84
2022-08-25T11:08:36.060Z,101712.28
2022-08-25T11:11:17.464Z,101709.25
2022-08-25T11:14:00.294Z,101697.34
2022-08-25T11:16:57.827Z,101671.59
2022-08-25T11:19:32.815Z,101688.44
2022-08-25T11:22:16.175Z,101656.00
2022-08-25T11:24:51.732Z,101688.34
2022-08-25T11:27:25.344Z,101665.50
2022-08-25T11:30:14.149Z,101654.53
2022-08-25T11:32:46.709Z,101676.59
2022-08-25T11:35:16.979Z,101671.50
2022-08-25T11:38:06.484Z,101646.00
2022-08-25T11:40:33.087Z,101676.69
2022-08-25T11:43:22.647Z,101677.53
2022-08-25T11:46:00.922Z,101677.38
2022-08-25T11:48:41.571Z,101667.69
2022-08-25T11:51:11.801Z,101668.81
2022-08-25T11:53:42.608Z,101657.19
2022-08-25T11:56:31.874Z,101654.94
2022-08-25T11:58:59.491Z,101591.56
2022-08-25T12:01:32.699Z,101643.25
2022-08-25T12:04:42.206Z,101642.94
2022-08-25T12:07:21.995Z,101643.72
2022-08-25T12:09:51.640Z,101643.16
2022-08-25T12:12:44.145Z,101645.00
2022-08-25T12:15:24.373Z,101633.81
2022-08-25T12:18:13.168Z,101622.09
2022-08-25T12:20:58.354Z,101620.16
2022-08-25T12:24:02.901Z,101627.63
2022-08-25T12:26:42.070Z,101627.44
2022-08-25T12:29:26.658Z,101578.28
2022-08-25T12:31:57.421Z,101623.91
2022-08-25T12:34:46.454Z,101616.69
2022-08-25T12:37:19.268Z,101603.41
2022-08-25T12:39:49.885Z,101610.88
2022-08-25T12:42:38.317Z,101601.34
2022-08-25T12:45:32.489Z,101593.06
2022-08-25T12:48:27.911Z,101601.34
2022-08-25T12:51:02.676Z,101592.28
2022-08-25T12:53:35.210Z,101591.53
2022-08-25T12:56:28.086Z,101578.19
2022-08-25T12:59:07.521Z,101582.66
2022-08-25T13:01:59.234Z,101584.78
2022-08-25T13:04:48.408Z,101588.25
2022-08-25T13:07:43.113Z,101587.19
2022-08-25T13:10:15.550Z,101572.78
2022-08-25T13:13:05.106Z,101570.63
2022-08-25T13:16:01.132Z,101572.91
2022-08-25T13:18:27.494Z,101557.75
2022-08-25T13:21:18.179Z,101559.34
2022-08-25T13:23:50.743Z,101554.13
2022-08-25T13:26:27.141Z,101550.28
2022-08-25T13:29:20.841Z,101544.75
2022-08-25T13:31:59.841Z,101538.09
2022-08-25T13:34:34.480Z,101529.28
2022-08-25T13:37:25.565Z,101530.06
2022-08-25T13:40:26.906Z,101532.56
2022-08-25T13:42:59.461Z,101519.00
2022-08-25T13:45:31.780Z,101526.97
2022-08-25T13:47:58.786Z,101517.31
2022-08-25T13:50:31.246Z,101511.75
2022-08-25T13:53:25.822Z,101517.22
2022-08-25T13:55:56.921Z,101502.28
2022-08-25T13:58:38.584Z,101509.31
2022-08-25T14:01:47.727Z,101513.94
2022-08-25T14:04:22.381Z,101517.41
2022-08-25T14:06:49.513Z,101505.72
2022-08-25T14:09:28.270Z,101491.31
2022-08-25T14:11:58.536Z,101509.91
2022-08-25T14:14:24.882Z,101513.63
2022-08-25T14:16:58.782Z,101505.41
2022-08-25T14:19:26.228Z,101502.97
2022-08-25T14:21:56.638Z,101498.00
2022-08-25T14:24:23.862Z,101485.00
2022-08-25T14:26:54.106Z,101454.13
2022-08-25T14:29:22.212Z,101486.47
2022-08-25T14:31:49.865Z,101480.97
2022-08-25T14:34:22.666Z,101478.25
2022-08-25T14:36:50.670Z,101467.81
2022-08-25T14:39:17.916Z,101472.28
2022-08-25T14:41:48.730Z,101468.16
2022-08-25T14:44:20.367Z,101469.03
2022-08-25T14:46:54.097Z,101455.19
2022-08-25T14:49:33.858Z,101458.28
2022-08-25T14:52:24.431Z,101458.00
2022-08-25T14:54:50.884Z,101452.75
2022-08-25T14:57:17.377Z,101450.75
2022-08-25T14:59:43.880Z,101450.19
2022-08-25T15:02:14.184Z,101436.34
2022-08-25T15:04:48.871Z,101454.28
2022-08-25T15:07:34.813Z,101434.97
2022-08-25T15:10:01.252Z,101431.72
2022-08-25T15:12:46.493Z,101426.22
2022-08-25T15:15:14.275Z,101426.47
2022-08-25T15:17:41.943Z,101422.31
2022-08-25T15:20:11.568Z,101425.63
2022-08-25T15:22:37.969Z,101419.53
2022-08-25T15:25:05.123Z,101409.28
2022-08-25T15:27:31.970Z,101393.47
2022-08-25T15:29:58.411Z,101412.50
2022-08-25T15:32:24.972Z,101423.28
2022-08-25T15:34:54.488Z,101412.31
2022-08-25T15:37:20.899Z,101408.34
2022-08-25T15:39:48.904Z,101404.22
2022-08-25T15:42:16.363Z,101384.88
2022-08-25T15:44:53.173Z,101407.00
2022-08-25T15:47:20.584Z,101396.47
2022-08-25T15:49:47.187Z,101394.53
2022-08-25T15:52:13.668Z,101394.50
2022-08-25T15:54:40.201Z,101386.16
2022-08-25T15:57:09.197Z,101388.88
2022-08-25T15:59:40.208Z,101386.06
2022-08-25T16:02:14.717Z,101393.25
2022-08-25T16:04:41.844Z,101382.44
2022-08-25T16:07:09.286Z,101375.19
2022-08-25T16:09:41.014Z,101387.03
2022-08-25T16:12:08.613Z,101353.00
2022-08-25T16:14:36.638Z,101350.44
2022-08-25T16:17:03.818Z,101352.66
2022-08-25T16:19:31.349Z,101368.63
2022-08-25T16:21:58.983Z,101369.72
2022-08-25T16:24:26.953Z,101344.06
2022-08-25T16:26:55.859Z,101365.66
2022-08-25T16:29:23.191Z,101367.34
2022-08-25T16:31:53.370Z,101367.97
2022-08-25T16:34:22.304Z,101373.81
2022-08-25T16:36:52.039Z,101364.19
2022-08-25T16:39:19.899Z,101371.75
2022-08-25T16:41:47.424Z,101359.63
2022-08-25T16:44:14.138Z,101361.88
2022-08-25T16:46:42.109Z,101354.97
2022-08-25T16:49:13.532Z,101354.44
2022-08-25T16:51:42.737Z,101361.13
2022-08-25T16:54:29.566Z,101351.72
2022-08-25T16:56:57.447Z,101351.72
2022-08-25T16:59:24.871Z,101354.50
2022-08-25T17:01:52.541Z,101349.81
2022-08-25T17:04:19.557Z,101351.75
2022-08-25T17:06:49.444Z,101346.53
2022-08-25T17:09:23.006Z,101347.91
2022-08-25T17:11:52.568Z,101349.59
2022-08-25T17:14:21.137Z,101340.72
2022-08-25T17:16:48.549Z,101346.84
2022-08-25T17:19:22.103Z,101349.03
2022-08-25T17:21:50.914Z,101338.31
2022-08-25T17:24:17.822Z,101345.22
2022-08-25T17:26:47.244Z,101342.16
2022-08-25T17:29:13.780Z,101339.91
2022-08-25T17:31:40.483Z,101340.44
2022-08-25T17:34:10.325Z,101352.25
2022-08-25T17:36:36.969Z,101345.78
2022-08-25T17:39:03.927Z,101343.50
2022-08-25T17:41:30.400Z,101348.94
2022-08-25T17:43:57.320Z,101348.59
2022-08-25T17:46:24.073Z,101346.31
2022-08-25T17:48:51.295Z,101337.91
2022-08-25T17:51:18.469Z,101340.59
2022-08-25T17:53:45.148Z,101344.34
2022-08-25T17:56:16.639Z,101351.66
2022-08-25T17:58:43.161Z,101357.56
2022-08-25T18:01:19.740Z,101315.69
2022-08-25T18:03:49.316Z,101356.97
2022-08-25T18:06:16.274Z,101366.63
2022-08-25T18:08:43.635Z,101341.75
2022-08-25T18:11:10.274Z,101357.59
2022-08-25T18:13:38.577Z,101368.28
2022-08-25T18:16:06.032Z,101368.84
2022-08-25T18:18:36.078Z,101325.81
2022-08-25T18:21:02.926Z,101358.28
2022-08-25T18:23:29.599Z,101356.34
2022-08-25T18:26:01.049Z,101355.63
2022-08-25T18:28:28.724Z,101363.31
2022-08-25T18:30:55.494Z,101358.16
2022-08-25T18:33:23.130Z,101367.75
2022-08-25T18:35:49.692Z,101360.28
2022-08-25T18:38:34.593Z,101368.38
2022-08-25T18:41:04.786Z,101367.44
2022-08-25T18:43:34.029Z,101369.00
2022-08-25T18:46:04.169Z,101349.53
2022-08-25T18:48:32.094Z,101355.47
2022-08-25T18:50:59.812Z,101367.38
2022-08-25T18:53:36.713Z,101364.59
2022-08-25T18:56:04.725Z,101369.22
2022-08-25T18:58:31.490Z,101373.59
2022-08-25T19:00:57.939Z,101351.03
2022-08-25T19:03:24.554Z,101360.28
2022-08-25T19:05:55.060Z,101360.59
2022-08-25T19:08:24.823Z,101363.41
2022-08-25T19:10:53.212Z,101365.41
2022-08-25T19:13:22.828Z,101372.25
2022-08-25T19:15:50.912Z,101363.50
2022-08-25T19:18:18.568Z,101367.59
2022-08-25T19:20:45.623Z,101365.16
2022-08-25T19:23:13.108Z,101363.19
2022-08-25T19:25:41.724Z,101363.25
2022-08-25T19:28:11.908Z,101364.78
2022-08-25T19:30:39.104Z,101363.16
2022-08-25T19:33:16.831Z,101364.13
2022-08-25T19:36:03.907Z,101341.38
2022-08-25T19:38:33.921Z,101366.31
2022-08-25T19:41:02.560Z,101359.50
2022-08-25T19:43:35.987Z,101373.53
2022-08-25T19:46:02.974Z,101372.31
2022-08-25T19:48:29.557Z,101369.63
2022-08-25T19:50:56.348Z,101362.34
2022-08-25T19:53:22.878Z,101369.28
2022-08-25T19:55:49.312Z,101363.66
2022-08-25T19:58:15.963Z,101364.16
2022-08-25T20:00:47.133Z,101361.69
2022-08-25T20:03:17.366Z,101366.06
2022-08-25T20:05:43.820Z,101365.94
2022-08-25T20:08:10.281Z,101343.78
2022-08-25T20:10:42.011Z,101362.59
2022-08-25T20:13:09.567Z,101365.97
2022-08-25T20:15:37.269Z,101348.25
2022-08-25T20:18:06.259Z,101369.78
2022-08-25T20:20:34.601Z,101365.19
2022-08-25T20:23:20.907Z,101362.31
2022-08-25T20:25:50.240Z,101354.41
2022-08-25T20:28:18.904Z,101368.84
2022-08-25T20:30:51.923Z,101364.84
2022-08-25T20:33:20.186Z,101356.72
2022-08-25T20:35:49.832Z,101363.66
2022-08-25T20:38:19.921Z,101365.13
2022-08-25T20:40:46.338Z,101365.19
2022-08-25T20:43:15.316Z,101359.13
2022-08-25T20:45:42.064Z,101357.06
2022-08-25T20:48:09.554Z,101376.13
2022-08-25T20:50:38.619Z,101371.31
2022-08-25T20:53:05.759Z,101361.25
2022-08-25T20:55:42.541Z,101371.56
2022-08-25T20:58:10.364Z,101353.72
2022-08-25T21:00:36.842Z,101332.44
2022-08-25T21:03:03.322Z,101361.53
2022-08-25T21:05:29.821Z,101360.47
2022-08-25T21:07:56.227Z,101358.59
2022-08-25T21:10:23.427Z,101363.41
2022-08-25T21:12:53.344Z,101362.19
2022-08-25T21:15:20.432Z,101361.75
2022-08-25T21:17:54.531Z,101355.47
2022-08-25T21:20:23.797Z,101359.25
2022-08-25T21:22:51.168Z,101353.59
2022-08-25T21:25:20.393Z,101353.19
2022-08-25T21:27:48.059Z,101358.63
2022-08-25T21:30:15.736Z,101367.63
2022-08-25T21:32:52.963Z,101354.88
2022-08-25T21:35:21.319Z,101368.03
2022-08-25T21:37:53.483Z,101368.03
2022-08-25T21:40:21.217Z,101369.72
2022-08-25T21:42:48.806Z,101347.53
2022-08-25T21:45:15.464Z,101364.50
2022-08-25T21:47:42.583Z,101372.66
2022-08-25T21:50:10.872Z,101366.38
2022-08-25T21:52:37.386Z,101359.47
2022-08-25T21:55:05.016Z,101369.72
2022-08-25T21:57:32.000Z,101372.22
2022-08-25T21:59:58.548Z,101350.25
2022-08-25T22:02:25.385Z,101364.69
2022-08-25T22:04:54.203Z,101367.59
2022-08-25T22:07:22.396Z,101354.44
2022-08-25T22:09:51.303Z,101365.94
2022-08-25T22:12:21.402Z,101352.97
2022-08-25T22:14:48.365Z,101365.97
2022-08-25T22:17:16.634Z,101360.94
2022-08-25T22:19:43.777Z,101364.91
2022-08-25T22:22:10.206Z,101358.44
2022-08-25T22:24:36.892Z,101353.84
2022-08-25T22:27:04.430Z,101355.09
2022-08-25T22:29:43.455Z,101326.16
2022-08-25T22:32:09.930Z,101350.03
2022-08-25T22:34:40.269Z,101354.22
2022-08-25T22:37:07.235Z,101351.72
2022-08-25T22:39:34.893Z,101351.09
2022-08-25T22:42:04.873Z,101355.91
2022-08-25T22:44:31.696Z,101344.19
2022-08-25T22:46:58.124Z,101345.66
2022-08-25T22:49:28.314Z,101338.72
2022-08-25T22:51:55.351Z,101338.72
2022-08-25T22:54:22.894Z,101340.41
2022-08-25T22:56:50.776Z,101346.69
2022-08-25T22:59:17.548Z,101345.66
2022-08-25T23:01:45.149Z,101327.22
2022-08-25T23:04:12.137Z,101342.50
2022-08-25T23:06:39.288Z,101342.53
2022-08-25T23:09:08.179Z,101349.84
2022-08-25T23:11:38.493Z,101344.41
2022-08-25T23:14:09.411Z,101333.53
2022-08-25T23:16:36.127Z,101344.19
2022-08-25T23:19:02.610Z,101332.06
2022-08-25T23:21:48.025Z,101333.75
2022-08-25T23:24:29.917Z,101326.63
2022-08-25T23:26:58.782Z,101325.78
2022-08-25T23:29:25.438Z,101322.84
2022-08-25T23:31:52.063Z,101318.84
2022-08-25T23:34:21.721Z,101293.13
2022-08-25T23:36:49.038Z,101318.63
2022-08-25T23:39:15.743Z,101313.19
2022-08-25T23:41:42.272Z,101311.53
2022-08-25T23:44:11.756Z,101311.31
2022-08-25T23:46:44.458Z,101312.34
2022-08-25T23:49:11.040Z,101298.97
2022-08-25T23:51:40.066Z,101305.88
2022-08-25T23:54:10.831Z,101302.31
2022-08-25T23:56:44.853Z,101272.81
2022-08-25T23:59:24.670Z,101289.75
